createdAt,value
2019-04-06T00:04:52.073Z,14.53
2019-04-06T00:07:23.818Z,15.43
2019-04-06T00:09:54.379Z,14.40
2019-04-06T00:12:24.823Z,14.17
2019-04-06T00:14:55.427Z,14.73
2019-04-06T00:17:26.558Z,13.80
2019-04-06T00:19:56.868Z,14.27
2019-04-06T00:22:27.239Z,13.73
2019-04-06T00:24:57.523Z,14.20
2019-04-06T00:27:27.980Z,14.70
2019-04-06T00:29:58.324Z,15.53
2019-04-06T00:32:28.788Z,13.40
2019-04-06T00:35:00.118Z,13.93
2019-04-06T00:37:37.684Z,15.97
2019-04-06T00:40:08.004Z,15.03
2019-04-06T00:42:39.138Z,15.57
2019-04-06T00:45:11.487Z,16.53
2019-04-06T00:47:42.830Z,16.33
2019-04-06T00:50:13.300Z,15.37
2019-04-06T00:52:43.760Z,15.33
2019-04-06T00:55:16.022Z,13.77
2019-04-06T00:57:46.336Z,16.67
2019-04-06T01:00:16.850Z,15.50
2019-04-06T01:02:47.972Z,15.03
2019-04-06T01:05:18.285Z,15.37
2019-04-06T01:07:48.627Z,15.30
2019-04-06T01:10:19.715Z,15.27
2019-04-06T01:12:50.102Z,15.10
2019-04-06T01:15:21.406Z,14.37
2019-04-06T01:17:51.721Z,12.73
2019-04-06T01:20:27.191Z,13.90
2019-04-06T01:22:57.736Z,14.80
2019-04-06T01:25:28.488Z,15.60
2019-04-06T01:27:59.051Z,15.13
2019-04-06T01:30:29.394Z,13.23
2019-04-06T01:32:59.862Z,15.27
2019-04-06T01:35:30.179Z,15.10
2019-04-06T01:38:00.516Z,13.67
2019-04-06T01:40:31.973Z,15.07
2019-04-06T01:43:02.292Z,15.70
2019-04-06T01:45:33.399Z,14.87
2019-04-06T01:48:04.299Z,13.90
2019-04-06T01:50:34.616Z,16.13
2019-04-06T01:53:05.805Z,15.80
2019-04-06T01:55:43.440Z,15.80
2019-04-06T01:58:14.556Z,14.93
2019-04-06T02:01:03.681Z,14.40
2019-04-06T02:03:34.031Z,14.40
2019-04-06T02:06:08.536Z,14.57
2019-04-06T02:08:38.856Z,17.27
2019-04-06T02:11:09.651Z,14.73
2019-04-06T02:13:40.550Z,15.17
2019-04-06T02:16:15.221Z,16.10
2019-04-06T02:18:46.155Z,14.23
2019-04-06T02:21:16.493Z,15.77
2019-04-06T02:23:47.590Z,13.07
2019-04-06T02:26:30.716Z,14.67
2019-04-06T02:28:55.728Z,14.57
2019-04-06T02:31:30.158Z,14.63
2019-04-06T02:34:03.960Z,13.07
2019-04-06T02:36:34.264Z,13.93
2019-04-06T02:39:09.258Z,14.00
2019-04-06T02:41:45.905Z,14.53
2019-04-06T02:44:16.262Z,13.47
2019-04-06T02:46:46.545Z,15.40
2019-04-06T02:49:19.101Z,14.50
2019-04-06T02:51:49.272Z,14.43
2019-04-06T02:54:19.566Z,16.30
2019-04-06T02:56:50.037Z,14.53
2019-04-06T02:59:20.452Z,15.47
2019-04-06T03:01:51.527Z,14.50
2019-04-06T03:04:21.979Z,14.97
2019-04-06T03:06:52.649Z,15.03
2019-04-06T03:09:23.909Z,15.37
2019-04-06T03:11:57.282Z,14.73
2019-04-06T03:17:10.536Z,15.47
2019-04-06T03:19:40.855Z,15.63
2019-04-06T03:22:11.174Z,16.10
2019-04-06T03:24:41.519Z,14.67
2019-04-06T03:27:14.242Z,14.30
2019-04-06T03:29:56.441Z,16.57
2019-04-06T03:32:15.976Z,16.03
2019-04-06T03:34:46.186Z,15.20
2019-04-06T03:37:16.578Z,14.43
2019-04-06T03:39:50.829Z,16.50
2019-04-06T03:42:21.338Z,17.70
2019-04-06T03:44:51.462Z,15.27
2019-04-06T03:47:21.805Z,15.40
2019-04-06T03:49:52.119Z,15.53
2019-04-06T03:52:22.432Z,14.93
2019-04-06T03:54:52.837Z,15.27
2019-04-06T03:57:23.171Z,15.47
2019-04-06T03:59:53.627Z,16.87
2019-04-06T04:02:24.013Z,14.70
2019-04-06T04:04:55.072Z,16.67
2019-04-06T04:07:28.468Z,15.93
2019-04-06T04:10:00.881Z,16.13
2019-04-06T04:12:31.375Z,15.53
2019-04-06T04:15:01.897Z,16.20
2019-04-06T04:17:32.847Z,14.57
2019-04-06T04:20:03.158Z,15.97
2019-04-06T04:22:35.210Z,14.87
2019-04-06T04:25:04.549Z,14.17
2019-04-06T04:27:34.876Z,14.20
2019-04-06T04:30:06.246Z,14.07
2019-04-06T04:32:36.560Z,14.53
2019-04-06T04:35:06.877Z,14.07
2019-04-06T04:37:37.464Z,13.77
2019-04-06T04:40:07.769Z,12.80
2019-04-06T04:42:38.090Z,13.17
2019-04-06T04:45:28.589Z,12.63
2019-04-06T04:47:59.669Z,14.27
2019-04-06T04:50:29.984Z,14.27
2019-04-06T04:53:01.395Z,14.60
2019-04-06T04:55:31.713Z,16.10
2019-04-06T04:58:02.026Z,13.80
2019-04-06T05:00:32.367Z,14.30
2019-04-06T05:03:02.677Z,14.87
2019-04-06T05:05:32.988Z,14.80
2019-04-06T05:08:23.824Z,15.87
2019-04-06T05:10:54.812Z,15.50
2019-04-06T05:13:25.126Z,15.30
2019-04-06T05:16:09.274Z,16.33
2019-04-06T05:18:39.603Z,15.90
2019-04-06T05:21:09.982Z,16.03
2019-04-06T05:23:40.271Z,16.73
2019-04-06T05:26:12.636Z,17.07
2019-04-06T05:28:42.954Z,15.93
2019-04-06T05:31:13.308Z,17.27
2019-04-06T05:33:49.754Z,15.40
2019-04-06T05:36:20.113Z,16.97
2019-04-06T05:38:50.439Z,17.50
2019-04-06T05:41:24.869Z,15.20
2019-04-06T05:43:55.396Z,15.30
2019-04-06T05:46:25.546Z,17.30
2019-04-06T05:48:55.869Z,17.00
2019-04-06T05:51:26.952Z,16.90
2019-04-06T05:53:57.265Z,15.27
2019-04-06T05:56:27.631Z,16.07
2019-04-06T05:58:57.951Z,16.53
2019-04-06T06:01:30.351Z,14.90
2019-04-06T06:04:01.480Z,17.73
2019-04-06T06:06:31.797Z,15.20
2019-04-06T06:09:02.111Z,17.53
2019-04-06T06:11:32.498Z,15.10
2019-04-06T06:14:02.819Z,15.90
2019-04-06T06:16:33.135Z,15.90
2019-04-06T06:19:03.481Z,15.33
2019-04-06T06:21:33.813Z,16.47
2019-04-06T06:24:04.233Z,17.70
2019-04-06T06:26:34.690Z,16.23
2019-04-06T06:29:04.788Z,17.83
2019-04-06T06:31:35.371Z,16.40
2019-04-06T06:34:05.714Z,17.73
2019-04-06T06:36:37.719Z,15.17
2019-04-06T06:39:08.307Z,16.53
2019-04-06T06:41:38.301Z,15.40
2019-04-06T06:44:08.620Z,15.67
2019-04-06T06:46:38.935Z,15.60
2019-04-06T06:49:28.788Z,17.83
2019-04-06T06:51:58.964Z,15.90
2019-04-06T06:54:29.292Z,15.50
2019-04-06T06:56:59.632Z,17.50
2019-04-06T06:59:31.643Z,16.90
2019-04-06T07:02:01.956Z,15.60
2019-04-06T07:04:32.294Z,18.07
2019-04-06T07:07:02.610Z,15.17
2019-04-06T07:09:34.161Z,16.23
2019-04-06T07:12:05.325Z,17.43
2019-04-06T07:14:56.033Z,16.43
2019-04-06T07:17:32.502Z,15.10
2019-04-06T07:20:22.199Z,15.03
2019-04-06T07:22:52.538Z,17.40
2019-04-06T07:25:22.857Z,15.23
2019-04-06T07:30:34.886Z,13.97
2019-04-06T07:33:05.969Z,16.20
2019-04-06T07:35:36.286Z,15.53
2019-04-06T07:38:07.712Z,16.90
2019-04-06T07:40:38.864Z,15.93
2019-04-06T07:43:15.283Z,14.23
2019-04-06T07:45:46.616Z,15.07
2019-04-06T07:48:25.133Z,15.13
2019-04-06T07:50:55.451Z,16.37
2019-04-06T07:53:25.774Z,17.10
2019-04-06T07:55:58.240Z,16.60
2019-04-06T07:58:28.491Z,16.37
2019-04-06T08:01:02.899Z,15.87
2019-04-06T08:03:37.340Z,14.80
2019-04-06T08:06:08.671Z,14.23
2019-04-06T08:08:44.130Z,17.50
2019-04-06T08:11:14.452Z,15.60
2019-04-06T08:14:03.904Z,14.57
2019-04-06T08:16:34.201Z,15.80
2019-04-06T08:19:04.518Z,14.73
2019-04-06T08:21:34.859Z,15.17
2019-04-06T08:24:05.318Z,13.43
2019-04-06T08:26:36.277Z,13.83
2019-04-06T08:29:06.601Z,14.00
2019-04-06T08:31:36.923Z,14.17
2019-04-06T08:34:28.667Z,11.77
2019-04-06T08:36:59.008Z,14.20
2019-04-06T08:39:30.123Z,14.03
2019-04-06T08:42:00.873Z,12.63
2019-04-06T08:44:32.789Z,13.00
2019-04-06T08:47:03.119Z,13.00
2019-04-06T08:49:34.038Z,13.33
2019-04-06T08:52:05.118Z,12.80
2019-04-06T08:54:56.621Z,11.67
2019-04-06T08:57:27.310Z,12.33
2019-04-06T08:59:57.626Z,13.50
2019-04-06T09:02:28.563Z,14.40
2019-04-06T09:04:58.518Z,13.27
2019-04-06T09:07:28.834Z,13.90
2019-04-06T09:10:00.915Z,14.80
2019-04-06T09:12:31.869Z,15.60
2019-04-06T09:15:03.248Z,13.53
2019-04-06T09:17:33.758Z,16.20
2019-04-06T09:20:10.219Z,12.57
2019-04-06T09:22:40.597Z,13.83
2019-04-06T09:25:10.915Z,12.33
2019-04-06T09:27:41.236Z,14.07
2019-04-06T09:30:11.587Z,12.13
2019-04-06T09:32:42.674Z,12.90
2019-04-06T09:35:19.207Z,13.17
2019-04-06T09:37:49.569Z,13.83
2019-04-06T09:40:19.821Z,13.60
2019-04-06T09:42:50.183Z,13.67
2019-04-06T09:45:23.404Z,12.03
2019-04-06T09:47:56.316Z,12.30
2019-04-06T09:50:26.671Z,12.60
2019-04-06T09:52:56.915Z,12.80
2019-04-06T09:55:33.057Z,12.73
2019-04-06T09:58:04.401Z,11.90
2019-04-06T10:00:40.917Z,12.57
2019-04-06T10:03:12.253Z,11.73
2019-04-06T10:05:42.572Z,11.13
2019-04-06T10:08:30.749Z,14.17
2019-04-06T10:11:21.343Z,13.07
2019-04-06T10:13:56.805Z,12.67
2019-04-06T10:16:35.979Z,12.90
2019-04-06T10:19:09.057Z,10.83
2019-04-06T10:21:42.065Z,12.23
2019-04-06T10:24:18.919Z,10.27
2019-04-06T10:29:48.829Z,10.80
2019-04-06T10:32:31.584Z,9.80
2019-04-06T10:35:07.516Z,9.10
2019-04-06T10:37:40.459Z,10.13
2019-04-06T10:40:20.091Z,8.53
2019-04-06T10:43:02.002Z,10.50
2019-04-06T10:45:48.541Z,9.47
2019-04-06T10:48:27.231Z,10.33
2019-04-06T10:51:17.678Z,10.37
2019-04-06T10:53:47.995Z,9.83
2019-04-06T10:56:24.258Z,10.57
2019-04-06T10:58:54.384Z,10.33
2019-04-06T11:01:27.123Z,11.33
2019-04-06T11:03:59.517Z,11.33
2019-04-06T11:06:38.680Z,9.13
2019-04-06T11:09:25.105Z,10.40
2019-04-06T11:12:14.458Z,8.73
2019-04-06T11:14:53.667Z,9.67
2019-04-06T11:17:24.329Z,9.07
2019-04-06T11:20:06.100Z,10.73
2019-04-06T11:22:45.741Z,9.17
2019-04-06T11:28:14.121Z,9.63
2019-04-06T11:30:45.266Z,9.43
2019-04-06T11:33:21.055Z,15.60
2019-04-06T11:35:57.219Z,12.63
2019-04-06T11:38:32.699Z,11.00
2019-04-06T11:41:03.096Z,9.60
2019-04-06T11:43:33.363Z,12.30
2019-04-06T11:46:11.470Z,10.30
2019-04-06T11:48:59.908Z,10.50
2019-04-06T11:51:39.948Z,8.50
2019-04-06T11:54:22.223Z,8.23
2019-04-06T11:57:10.524Z,8.93
2019-04-06T11:59:49.752Z,9.60
2019-04-06T12:02:19.921Z,10.60
2019-04-06T12:05:01.982Z,9.67
2019-04-06T12:07:40.121Z,7.73
2019-04-06T12:10:16.301Z,7.33
2019-04-06T12:12:49.595Z,7.87
2019-04-06T12:15:22.877Z,7.07
2019-04-06T12:18:02.617Z,12.07
2019-04-06T12:20:35.340Z,7.77
2019-04-06T12:23:23.550Z,7.77
2019-04-06T12:25:56.900Z,9.33
2019-04-06T12:28:26.908Z,10.23
2019-04-06T12:30:57.240Z,9.13
2019-04-06T12:33:27.557Z,9.33
2019-04-06T12:35:58.092Z,8.73
2019-04-06T12:38:38.088Z,6.37
2019-04-06T12:41:28.194Z,6.07
2019-04-06T12:44:04.329Z,7.07
2019-04-06T12:46:54.928Z,7.63
2019-04-06T12:49:44.366Z,9.07
2019-04-06T12:52:23.739Z,6.50
2019-04-06T12:54:54.793Z,7.50
2019-04-06T12:57:43.211Z,5.80
2019-04-06T13:00:32.048Z,8.53
2019-04-06T13:03:10.861Z,8.47
2019-04-06T13:05:50.830Z,6.93
2019-04-06T13:08:27.034Z,9.70
2019-04-06T13:11:02.629Z,5.17
2019-04-06T13:13:33.708Z,6.50
2019-04-06T13:16:29.255Z,6.90
2019-04-06T13:19:05.794Z,6.03
2019-04-06T13:21:47.089Z,6.07
2019-04-06T13:24:48.642Z,4.80
2019-04-06T13:27:37.229Z,6.13
2019-04-06T13:30:33.714Z,5.73
2019-04-06T13:33:05.344Z,6.20
2019-04-06T13:35:41.488Z,5.70
2019-04-06T13:38:18.454Z,7.70
2019-04-06T13:40:54.149Z,6.87
2019-04-06T13:43:42.537Z,6.87
2019-04-06T13:46:21.620Z,6.87
2019-04-06T13:49:10.046Z,8.00
2019-04-06T13:54:43.218Z,8.53
2019-04-06T13:57:18.859Z,8.40
2019-04-06T13:59:56.916Z,8.03
2019-04-06T14:02:40.128Z,10.80
2019-04-06T14:05:13.041Z,8.87
2019-04-06T14:07:55.295Z,9.87
2019-04-06T14:10:27.976Z,12.70
2019-04-06T14:13:19.705Z,11.40
2019-04-06T14:15:57.717Z,12.97
2019-04-06T14:19:03.215Z,12.20
2019-04-06T14:21:40.020Z,10.83
2019-04-06T14:24:19.113Z,10.63
2019-04-06T14:26:58.614Z,11.20
2019-04-06T14:29:31.737Z,11.77
2019-04-06T14:32:04.708Z,11.60
2019-04-06T14:34:40.716Z,11.90
2019-04-06T14:37:29.263Z,11.63
2019-04-06T14:40:10.475Z,11.10
2019-04-06T14:42:55.439Z,9.53
2019-04-06T14:45:25.759Z,8.87
2019-04-06T14:48:00.186Z,9.53
2019-04-06T14:50:37.813Z,11.10
2019-04-06T14:53:11.483Z,10.70
2019-04-06T14:55:43.967Z,7.57
2019-04-06T14:58:31.211Z,5.03
2019-04-06T15:01:19.502Z,2.33
2019-04-06T15:03:50.003Z,2.07
2019-04-06T15:06:23.891Z,2.63
2019-04-06T15:09:00.156Z,5.97
2019-04-06T15:11:30.665Z,2.57
2019-04-06T15:14:19.901Z,2.73
2019-04-06T15:16:53.003Z,2.00
2019-04-06T15:19:41.278Z,2.23
2019-04-06T15:22:26.526Z,3.23
2019-04-06T15:25:05.965Z,2.50
2019-04-06T15:27:38.778Z,2.83
2019-04-06T15:30:20.415Z,3.60
2019-04-06T15:32:54.538Z,1.23
2019-04-06T15:35:28.487Z,1.10
2019-04-06T15:38:12.816Z,1.33
2019-04-06T15:40:54.898Z,4.13
2019-04-06T15:43:43.433Z,5.43
2019-04-06T15:46:16.243Z,2.17
2019-04-06T15:49:04.791Z,2.07
2019-04-06T15:51:53.032Z,2.00
2019-04-06T15:54:27.207Z,2.40
2019-04-06T15:57:03.003Z,1.43
2019-04-06T15:59:39.660Z,3.00
2019-04-06T16:02:28.361Z,6.37
2019-04-06T16:04:58.450Z,1.50
2019-04-06T16:07:35.154Z,2.97
2019-04-06T16:10:08.232Z,1.00
2019-04-06T16:12:47.376Z,1.17
2019-04-06T16:15:23.209Z,2.90
2019-04-06T16:17:53.567Z,5.10
2019-04-06T16:20:29.346Z,3.40
2019-04-06T16:23:14.704Z,5.57
2019-04-06T16:25:57.097Z,5.07
2019-04-06T16:28:33.574Z,2.67
2019-04-06T16:31:23.016Z,2.97
2019-04-06T16:34:05.130Z,3.13
2019-04-06T16:36:38.619Z,3.70
2019-04-06T16:39:27.038Z,4.20
2019-04-06T16:42:13.422Z,3.93
2019-04-06T16:47:36.375Z,8.43
2019-04-06T16:50:45.906Z,8.47
2019-04-06T16:53:19.285Z,8.73
2019-04-06T16:55:49.940Z,9.73
2019-04-06T16:58:29.109Z,10.80
2019-04-06T17:01:01.862Z,8.93
2019-04-06T17:03:39.972Z,7.73
2019-04-06T17:06:18.364Z,7.50
2019-04-06T17:09:07.193Z,4.90
2019-04-06T17:11:55.562Z,13.13
2019-04-06T17:14:28.620Z,10.70
2019-04-06T17:17:02.491Z,9.97
2019-04-06T17:19:51.723Z,12.20
2019-04-06T17:22:36.900Z,12.35
2019-04-06T17:25:07.499Z,13.30
2019-04-06T17:27:45.301Z,8.37
2019-04-06T17:30:15.528Z,9.07
2019-04-06T17:32:48.509Z,7.50
2019-04-06T17:35:22.118Z,9.30
2019-04-06T17:37:53.485Z,11.33
2019-04-06T17:40:36.399Z,10.40
2019-04-06T17:43:25.423Z,8.83
2019-04-06T17:46:01.360Z,17.23
2019-04-06T17:48:32.793Z,12.50
2019-04-06T17:51:21.440Z,10.83
2019-04-06T17:54:09.852Z,8.73
2019-04-06T17:56:40.198Z,5.93
2019-04-06T17:59:28.292Z,3.67
2019-04-06T18:02:01.194Z,5.10
2019-04-06T18:04:49.992Z,2.63
2019-04-06T18:07:38.162Z,2.20
2019-04-06T18:10:14.100Z,2.03
2019-04-06T18:12:53.409Z,2.43
2019-04-06T18:15:23.858Z,2.07
2019-04-06T18:17:54.031Z,4.17
2019-04-06T18:20:24.382Z,2.63
2019-04-06T18:22:55.527Z,2.17
2019-04-06T18:25:26.817Z,2.60
2019-04-06T18:27:57.235Z,3.20
2019-04-06T18:30:32.797Z,3.67
2019-04-06T18:33:08.423Z,4.70
2019-04-06T18:35:39.756Z,9.43
2019-04-06T18:38:11.237Z,11.93
2019-04-06T18:40:47.769Z,8.90
2019-04-06T18:43:18.426Z,7.37
2019-04-06T18:45:48.298Z,8.50
2019-04-06T18:48:18.642Z,4.73
2019-04-06T18:50:48.957Z,4.93
2019-04-06T18:53:19.390Z,7.70
2019-04-06T18:55:49.606Z,7.43
2019-04-06T18:58:19.928Z,8.03
2019-04-06T19:00:50.722Z,11.67
2019-04-06T19:03:20.904Z,16.00
2019-04-06T19:05:51.265Z,16.67
2019-04-06T19:08:22.012Z,14.97
2019-04-06T19:10:52.646Z,13.33
2019-04-06T19:13:23.718Z,13.13
2019-04-06T19:15:54.004Z,10.40
2019-04-06T19:18:25.373Z,9.97
2019-04-06T19:21:16.392Z,8.97
2019-04-06T19:23:46.425Z,9.13
2019-04-06T19:26:17.156Z,4.27
2019-04-06T19:28:47.048Z,4.90
2019-04-06T19:31:17.392Z,3.07
2019-04-06T19:33:47.703Z,2.73
2019-04-06T19:36:18.118Z,2.30
2019-04-06T19:38:48.492Z,3.57
2019-04-06T19:41:19.095Z,2.27
2019-04-06T19:43:49.986Z,2.17
2019-04-06T19:46:42.022Z,1.90
2019-04-06T19:49:11.927Z,1.60
2019-04-06T19:51:42.364Z,1.50
2019-04-06T19:54:12.998Z,2.80
2019-04-06T19:56:44.077Z,1.30
2019-04-06T19:59:13.968Z,2.50
2019-04-06T20:01:44.323Z,2.97
2019-04-06T20:04:15.066Z,1.13
2019-04-06T20:06:45.521Z,2.37
2019-04-06T20:09:20.776Z,1.50
2019-04-06T20:12:11.514Z,2.97
2019-04-06T20:14:41.865Z,1.90
2019-04-06T20:17:12.243Z,2.80
2019-04-06T20:19:43.878Z,2.63
2019-04-06T20:22:14.867Z,2.20
2019-04-06T20:24:45.083Z,1.20
2019-04-06T20:27:16.234Z,1.83
2019-04-06T20:29:46.588Z,2.03
2019-04-06T20:32:16.903Z,1.33
2019-04-06T20:34:47.225Z,1.50
2019-04-06T20:37:37.515Z,3.87
2019-04-06T20:42:49.345Z,5.47
2019-04-06T20:45:20.922Z,5.83
2019-04-06T20:47:51.160Z,5.20
2019-04-06T20:50:24.475Z,7.17
2019-04-06T20:52:54.619Z,5.60
2019-04-06T20:55:25.955Z,3.77
2019-04-06T20:58:15.753Z,6.33
2019-04-06T21:00:45.721Z,4.50
2019-04-06T21:03:16.035Z,3.83
2019-04-06T21:05:47.649Z,4.30
2019-04-06T21:08:17.457Z,5.97
2019-04-06T21:10:47.777Z,17.53
2019-04-06T21:13:21.275Z,16.17
2019-04-06T21:16:13.679Z,13.10
2019-04-06T21:18:44.468Z,15.83
2019-04-06T21:21:17.672Z,15.70
2019-04-06T21:23:48.333Z,10.53
2019-04-06T21:26:18.155Z,5.67
2019-04-06T21:28:48.807Z,6.83
2019-04-06T21:31:18.714Z,4.37
2019-04-06T21:33:49.225Z,5.90
2019-04-06T21:36:23.470Z,5.80
2019-04-06T21:38:54.130Z,6.10
2019-04-06T21:41:43.807Z,8.23
2019-04-06T21:44:14.164Z,6.67
2019-04-06T21:46:44.675Z,6.20
2019-04-06T21:49:14.865Z,5.03
2019-04-06T21:51:47.244Z,4.40
2019-04-06T21:54:24.013Z,2.83
2019-04-06T21:56:56.103Z,2.90
2019-04-06T21:59:26.681Z,2.80
2019-04-06T22:01:58.075Z,2.40
2019-04-06T22:04:35.272Z,2.30
2019-04-06T22:07:05.586Z,1.70
2019-04-06T22:09:42.367Z,3.17
2019-04-06T22:12:32.148Z,2.10
2019-04-06T22:15:02.100Z,2.87
2019-04-06T22:17:34.214Z,3.30
2019-04-06T22:20:03.000Z,3.20
2019-04-06T22:22:33.512Z,3.30
2019-04-06T22:25:03.388Z,3.60
2019-04-06T22:27:33.702Z,2.87
2019-04-06T22:30:04.641Z,3.23
2019-04-06T22:32:34.356Z,2.90
2019-04-06T22:35:04.668Z,4.23
2019-04-06T22:37:35.021Z,4.10
2019-04-06T22:40:08.638Z,3.50
2019-04-06T22:42:38.583Z,2.80
2019-04-06T22:45:09.308Z,2.57
2019-04-06T22:47:41.480Z,3.23
2019-04-06T22:50:12.958Z,3.30
2019-04-06T22:52:43.492Z,2.27
2019-04-06T22:55:21.040Z,2.60
2019-04-06T22:57:51.249Z,2.20
2019-04-06T23:00:22.557Z,1.90
2019-04-06T23:02:55.498Z,1.57
2019-04-06T23:05:34.823Z,2.33
2019-04-06T23:08:05.553Z,1.70
2019-04-06T23:10:35.236Z,1.27
2019-04-06T23:13:06.585Z,1.60
2019-04-06T23:15:37.172Z,1.30
2019-04-06T23:18:07.215Z,1.50
2019-04-06T23:20:37.761Z,1.60
2019-04-06T23:23:07.867Z,2.33
2019-04-06T23:25:38.182Z,1.63
2019-04-06T23:28:08.524Z,1.20
2019-04-06T23:31:01.322Z,2.10
2019-04-06T23:33:32.122Z,1.37
2019-04-06T23:36:02.435Z,1.30
2019-04-06T23:38:52.148Z,1.50
2019-04-06T23:41:22.799Z,1.37
2019-04-06T23:43:53.107Z,1.30
2019-04-06T23:46:23.449Z,2.23
2019-04-06T23:48:53.437Z,1.20
2019-04-06T23:51:24.575Z,2.30
2019-04-06T23:53:54.930Z,2.47
2019-04-06T23:56:26.590Z,2.57
2019-04-06T23:58:57.345Z,2.23
